createdAt,value
2022-09-15T00:01:20.735Z,60.91
2022-09-15T00:03:49.287Z,60.48
2022-09-15T00:06:17.409Z,60.22
2022-09-15T00:08:45.158Z,59.78
2022-09-15T00:11:20.362Z,59.71
2022-09-15T00:13:48.308Z,59.61
2022-09-15T00:16:18.333Z,58.60
2022-09-15T00:18:46.299Z,56.95
2022-09-15T00:21:15.461Z,58.95
2022-09-15T00:23:43.401Z,60.55
2022-09-15T00:26:12.610Z,61.75
2022-09-15T00:28:40.409Z,61.49
2022-09-15T00:31:09.782Z,65.81
2022-09-15T00:33:37.841Z,67.95
2022-09-15T00:36:10.892Z,66.00
2022-09-15T00:38:39.318Z,64.82
2022-09-15T00:41:08.478Z,62.93
2022-09-15T00:43:49.115Z,61.84
2022-09-15T00:46:20.830Z,60.14
2022-09-15T00:48:51.939Z,57.81
2022-09-15T00:51:20.898Z,57.66
2022-09-15T00:53:48.868Z,58.80
2022-09-15T00:56:19.860Z,60.30
2022-09-15T00:58:55.612Z,61.41
2022-09-15T01:01:23.996Z,61.60
2022-09-15T01:03:55.865Z,61.98
2022-09-15T01:06:32.218Z,68.38
2022-09-15T01:09:12.062Z,68.38
2022-09-15T01:11:39.829Z,64.71
2022-09-15T01:14:08.060Z,63.91
2022-09-15T01:16:52.258Z,62.36
2022-09-15T01:19:32.362Z,61.73
2022-09-15T01:22:18.806Z,60.59
2022-09-15T01:25:02.028Z,59.29
2022-09-15T01:27:48.457Z,57.28
2022-09-15T01:30:19.243Z,59.26
2022-09-15T01:33:07.222Z,60.36
2022-09-15T01:35:38.017Z,61.70
2022-09-15T01:38:14.776Z,62.36
2022-09-15T01:40:51.002Z,67.38
2022-09-15T01:43:20.279Z,65.73
2022-09-15T01:45:48.315Z,62.61
2022-09-15T01:48:18.696Z,60.85
2022-09-15T01:50:47.380Z,59.94
2022-09-15T01:53:16.242Z,57.97
2022-09-15T01:56:07.420Z,55.82
2022-09-15T01:58:35.529Z,57.51
2022-09-15T02:01:07.809Z,59.96
2022-09-15T02:03:39.778Z,61.50
2022-09-15T02:06:09.206Z,60.78
2022-09-15T02:08:38.569Z,60.81
2022-09-15T02:11:18.306Z,62.73
2022-09-15T02:13:52.224Z,68.33
2022-09-15T02:16:21.314Z,67.83
2022-09-15T02:18:56.778Z,64.91
2022-09-15T02:21:30.052Z,63.03
2022-09-15T02:24:01.372Z,61.47
2022-09-15T02:26:29.470Z,59.98
2022-09-15T02:28:57.226Z,58.39
2022-09-15T02:31:25.177Z,57.39
2022-09-15T02:33:58.095Z,58.96
2022-09-15T02:36:26.025Z,60.96
2022-09-15T02:38:58.270Z,60.89
2022-09-15T02:41:29.125Z,60.44
2022-09-15T02:43:58.155Z,63.06
2022-09-15T02:46:25.884Z,67.68
2022-09-15T02:48:57.190Z,67.18
2022-09-15T02:51:25.618Z,63.85
2022-09-15T02:53:55.297Z,62.22
2022-09-15T02:56:23.849Z,61.63
2022-09-15T02:58:51.592Z,60.47
2022-09-15T03:01:19.409Z,59.91
2022-09-15T03:03:47.266Z,58.19
2022-09-15T03:06:17.746Z,57.31
2022-09-15T03:08:51.097Z,58.20
2022-09-15T03:11:20.422Z,60.12
2022-09-15T03:13:48.560Z,61.44
2022-09-15T03:16:16.480Z,62.13
2022-09-15T03:18:44.316Z,63.21
2022-09-15T03:21:13.510Z,67.31
2022-09-15T03:23:43.723Z,65.09
2022-09-15T03:26:11.702Z,62.66
2022-09-15T03:28:42.509Z,61.59
2022-09-15T03:31:10.265Z,60.21
2022-09-15T03:33:39.301Z,58.76
2022-09-15T03:36:07.391Z,57.11
2022-09-15T03:38:35.138Z,58.10
2022-09-15T03:41:07.589Z,58.16
2022-09-15T03:43:38.781Z,60.48
2022-09-15T03:46:07.034Z,61.79
2022-09-15T03:48:37.574Z,65.53
2022-09-15T03:51:06.805Z,67.57
2022-09-15T03:53:36.227Z,65.10
2022-09-15T03:56:08.516Z,62.71
2022-09-15T03:58:38.677Z,61.78
2022-09-15T04:01:06.656Z,61.03
2022-09-15T04:03:40.250Z,60.18
2022-09-15T04:06:11.547Z,58.97
2022-09-15T04:08:39.449Z,56.90
2022-09-15T04:11:09.467Z,57.42
2022-09-15T04:13:38.228Z,59.55
2022-09-15T04:16:08.187Z,60.68
2022-09-15T04:18:36.151Z,61.40
2022-09-15T04:21:05.951Z,61.99
2022-09-15T04:23:34.057Z,61.78
2022-09-15T04:26:06.901Z,66.68
2022-09-15T04:28:35.550Z,69.98
2022-09-15T04:31:13.682Z,66.63
2022-09-15T04:33:42.326Z,63.62
2022-09-15T04:36:11.266Z,62.61
2022-09-15T04:38:39.830Z,61.80
2022-09-15T04:41:08.891Z,61.44
2022-09-15T04:43:39.213Z,60.39
2022-09-15T04:46:07.796Z,59.76
2022-09-15T04:48:35.657Z,58.37
2022-09-15T04:51:04.283Z,58.04
2022-09-15T04:53:32.329Z,59.48
2022-09-15T04:56:08.901Z,59.76
2022-09-15T04:58:51.331Z,60.03
2022-09-15T05:01:20.585Z,62.52
2022-09-15T05:03:50.150Z,68.43
2022-09-15T05:06:19.401Z,66.45
2022-09-15T05:08:49.820Z,63.79
2022-09-15T05:11:18.357Z,61.92
2022-09-15T05:13:46.598Z,60.81
2022-09-15T05:16:18.588Z,60.61
2022-09-15T05:18:46.984Z,59.98
2022-09-15T05:21:16.260Z,57.70
2022-09-15T05:23:44.230Z,58.93
2022-09-15T05:26:14.480Z,60.14
2022-09-15T05:28:43.060Z,59.92
2022-09-15T05:31:11.871Z,62.57
2022-09-15T05:33:40.886Z,67.96
2022-09-15T05:36:09.011Z,66.07
2022-09-15T05:38:40.943Z,63.42
2022-09-15T05:41:10.540Z,61.67
2022-09-15T05:43:39.666Z,60.68
2022-09-15T05:46:07.836Z,60.13
2022-09-15T05:48:35.989Z,58.40
2022-09-15T05:51:04.443Z,59.16
2022-09-15T05:53:34.150Z,59.92
2022-09-15T05:56:03.398Z,60.62
2022-09-15T05:58:31.919Z,63.03
2022-09-15T06:01:08.816Z,67.92
2022-09-15T06:03:36.931Z,65.63
2022-09-15T06:06:05.446Z,62.67
2022-09-15T06:08:33.888Z,62.13
2022-09-15T06:11:02.943Z,61.77
2022-09-15T06:13:30.824Z,61.22
2022-09-15T06:16:02.887Z,60.70
2022-09-15T06:18:30.883Z,60.45
2022-09-15T06:21:04.940Z,60.19
2022-09-15T06:23:32.975Z,59.83
2022-09-15T06:26:04.826Z,58.91
2022-09-15T06:28:35.536Z,57.92
2022-09-15T06:31:04.375Z,59.58
2022-09-15T06:33:32.970Z,60.08
2022-09-15T06:36:02.168Z,60.29
2022-09-15T06:38:32.690Z,62.28
2022-09-15T06:41:00.623Z,65.97
2022-09-15T06:43:31.741Z,64.63
2022-09-15T06:46:16.767Z,62.62
2022-09-15T06:48:48.160Z,62.18
2022-09-15T06:51:17.436Z,60.82
2022-09-15T06:53:47.247Z,57.99
2022-09-15T06:56:19.310Z,57.24
2022-09-15T06:58:49.496Z,58.06
2022-09-15T07:01:33.880Z,59.02
2022-09-15T07:04:02.882Z,64.32
2022-09-15T07:06:31.480Z,64.69
2022-09-15T07:08:59.533Z,62.88
2022-09-15T07:11:29.115Z,61.12
2022-09-15T07:13:57.110Z,57.94
2022-09-15T07:16:31.041Z,58.23
2022-09-15T07:19:01.335Z,58.74
2022-09-15T07:21:31.868Z,58.13
2022-09-15T07:24:08.838Z,59.59
2022-09-15T07:26:36.728Z,64.09
2022-09-15T07:29:07.447Z,63.73
2022-09-15T07:31:36.916Z,61.28
2022-09-15T07:34:07.091Z,57.86
2022-09-15T07:36:35.294Z,58.36
2022-09-15T07:39:04.454Z,58.57
2022-09-15T07:41:32.486Z,61.08
2022-09-15T07:44:03.546Z,63.03
2022-09-15T07:46:32.202Z,61.49
2022-09-15T07:49:03.396Z,58.59
2022-09-15T07:51:31.615Z,56.78
2022-09-15T07:53:59.431Z,58.52
2022-09-15T07:56:29.891Z,57.97
2022-09-15T07:58:58.420Z,59.64
2022-09-15T08:01:26.458Z,61.36
2022-09-15T08:03:56.123Z,60.42
2022-09-15T08:06:29.382Z,62.22
2022-09-15T08:09:00.796Z,64.42
2022-09-15T08:11:31.779Z,59.69
2022-09-15T08:14:01.403Z,57.54
2022-09-15T08:16:29.298Z,57.70
2022-09-15T08:18:57.282Z,59.58
2022-09-15T08:21:25.885Z,60.21
2022-09-15T08:23:56.171Z,61.86
2022-09-15T08:26:25.078Z,60.88
2022-09-15T08:28:54.350Z,62.54
2022-09-15T08:31:24.104Z,60.64
2022-09-15T08:33:53.720Z,56.48
2022-09-15T08:36:24.593Z,56.94
2022-09-15T08:38:52.705Z,57.59
2022-09-15T08:41:23.023Z,57.92
2022-09-15T08:43:56.989Z,57.49
2022-09-15T08:46:29.795Z,58.27
2022-09-15T08:49:30.621Z,59.03
2022-09-15T08:52:05.437Z,59.62
2022-09-15T08:54:35.378Z,59.54
2022-09-15T08:57:03.399Z,59.65
2022-09-15T08:59:35.394Z,59.45
2022-09-15T09:02:13.250Z,59.71
2022-09-15T09:05:28.047Z,59.56
2022-09-15T09:07:57.847Z,60.84
2022-09-15T09:10:36.546Z,60.49
2022-09-15T09:13:09.015Z,60.50
2022-09-15T09:15:43.945Z,59.86
2022-09-15T09:18:12.003Z,60.24
2022-09-15T09:20:55.671Z,61.64
2022-09-15T09:23:25.169Z,60.86
2022-09-15T09:25:53.317Z,61.10
2022-09-15T09:28:28.022Z,60.86
2022-09-15T09:30:57.912Z,60.95
2022-09-15T09:33:28.602Z,61.15
2022-09-15T09:35:58.620Z,61.49
2022-09-15T09:38:31.353Z,61.84
2022-09-15T09:41:02.856Z,62.09
2022-09-15T09:43:32.359Z,61.86
2022-09-15T09:46:02.070Z,62.06
2022-09-15T09:48:30.269Z,64.14
2022-09-15T09:51:01.408Z,67.27
2022-09-15T09:53:31.298Z,62.04
2022-09-15T09:56:13.035Z,59.51
2022-09-15T09:58:44.009Z,54.00
2022-09-15T10:01:13.660Z,54.56
2022-09-15T10:03:43.371Z,55.13
2022-09-15T10:06:14.295Z,56.17
2022-09-15T10:09:00.689Z,55.54
2022-09-15T10:11:41.158Z,57.68
2022-09-15T10:14:16.871Z,58.79
2022-09-15T10:16:44.806Z,59.49
2022-09-15T10:19:13.583Z,60.00
2022-09-15T10:21:41.654Z,60.37
2022-09-15T10:24:29.767Z,60.70
2022-09-15T10:27:16.750Z,60.91
2022-09-15T10:29:44.963Z,61.24
2022-09-15T10:32:18.327Z,60.99
2022-09-15T10:34:49.313Z,61.08
2022-09-15T10:37:23.562Z,61.43
2022-09-15T10:39:55.364Z,60.59
2022-09-15T10:42:31.026Z,60.34
2022-09-15T10:45:03.980Z,60.00
2022-09-15T10:47:51.769Z,59.72
2022-09-15T10:50:42.911Z,58.42
2022-09-15T10:53:10.933Z,57.20
2022-09-15T10:55:59.043Z,56.78
2022-09-15T10:58:29.891Z,55.37
2022-09-15T11:01:01.887Z,54.74
2022-09-15T11:03:43.705Z,53.81
2022-09-15T11:06:31.999Z,54.27
2022-09-15T11:09:06.022Z,55.38
2022-09-15T11:12:13.594Z,54.88
2022-09-15T11:14:48.907Z,54.56
2022-09-15T11:17:22.893Z,54.36
2022-09-15T11:19:53.658Z,54.57
2022-09-15T11:22:25.298Z,54.22
2022-09-15T11:24:58.828Z,53.98
2022-09-15T11:27:36.717Z,52.63
2022-09-15T11:30:23.533Z,53.61
2022-09-15T11:33:04.646Z,53.21
2022-09-15T11:35:49.163Z,52.82
2022-09-15T11:38:24.189Z,52.91
2022-09-15T11:40:57.470Z,51.58
2022-09-15T11:43:31.261Z,51.42
2022-09-15T11:45:59.086Z,52.04
2022-09-15T11:48:39.816Z,52.63
2022-09-15T11:51:07.489Z,52.58
2022-09-15T11:53:43.047Z,52.06
2022-09-15T11:56:14.454Z,51.84
2022-09-15T11:58:55.022Z,51.58
2022-09-15T12:01:29.173Z,51.21
2022-09-15T12:03:59.487Z,49.74
2022-09-15T12:06:46.395Z,49.51
2022-09-15T12:09:16.071Z,50.03
2022-09-15T12:11:47.134Z,49.83
2022-09-15T12:14:35.575Z,49.94
2022-09-15T12:17:06.550Z,49.38
2022-09-15T12:19:46.101Z,49.10
2022-09-15T12:22:16.802Z,49.06
2022-09-15T12:24:50.934Z,49.56
2022-09-15T12:27:20.193Z,50.33
2022-09-15T12:29:51.506Z,50.98
2022-09-15T12:32:26.909Z,51.34
2022-09-15T12:35:07.952Z,51.68
2022-09-15T12:37:46.871Z,51.61
2022-09-15T12:40:33.721Z,52.12
2022-09-15T12:43:16.447Z,51.81
2022-09-15T12:45:52.770Z,50.66
2022-09-15T12:48:20.923Z,50.27
2022-09-15T12:50:55.425Z,50.81
2022-09-15T12:53:24.706Z,51.11
2022-09-15T12:55:56.976Z,50.81
2022-09-15T12:58:24.702Z,50.26
2022-09-15T13:01:17.032Z,48.61
2022-09-15T13:06:26.133Z,47.48
2022-09-15T13:09:06.650Z,47.76
2022-09-15T13:11:37.413Z,48.79
2022-09-15T13:14:12.079Z,49.50
2022-09-15T13:16:40.171Z,50.21
2022-09-15T13:19:17.164Z,50.78
2022-09-15T13:21:52.180Z,51.23
2022-09-15T13:24:38.841Z,52.04
2022-09-15T13:27:06.745Z,53.06
2022-09-15T13:29:41.274Z,53.61
2022-09-15T13:32:29.245Z,54.06
2022-09-15T13:35:19.564Z,54.46
2022-09-15T13:38:12.561Z,55.33
2022-09-15T13:41:05.428Z,55.53
2022-09-15T13:43:36.279Z,55.63
2022-09-15T13:46:12.057Z,56.39
2022-09-15T13:48:47.165Z,56.46
2022-09-15T13:51:25.743Z,57.25
2022-09-15T13:53:59.711Z,57.25
2022-09-15T13:56:35.611Z,57.51
2022-09-15T13:59:14.091Z,57.76
2022-09-15T14:01:43.340Z,57.67
2022-09-15T14:04:21.680Z,57.55
2022-09-15T14:06:50.279Z,57.56
2022-09-15T14:09:21.211Z,57.61
2022-09-15T14:11:49.696Z,57.34
2022-09-15T14:14:37.249Z,57.04
2022-09-15T14:17:05.572Z,57.00
2022-09-15T14:19:34.851Z,56.71
2022-09-15T14:22:24.833Z,56.26
2022-09-15T14:24:53.184Z,55.36
2022-09-15T14:27:22.262Z,54.78
2022-09-15T14:29:54.531Z,53.57
2022-09-15T14:32:23.439Z,51.89
2022-09-15T14:34:51.179Z,51.36
2022-09-15T14:37:28.605Z,50.97
2022-09-15T14:39:57.537Z,50.68
2022-09-15T14:42:41.644Z,51.23
2022-09-15T14:48:07.944Z,50.25
2022-09-15T14:50:35.895Z,49.99
2022-09-15T14:53:04.043Z,50.43
2022-09-15T14:55:33.940Z,51.12
2022-09-15T14:58:04.953Z,51.59
2022-09-15T15:00:34.729Z,50.74
2022-09-15T15:03:03.371Z,50.40
2022-09-15T15:05:35.856Z,50.57
2022-09-15T15:08:04.702Z,50.65
2022-09-15T15:10:35.887Z,50.05
2022-09-15T15:13:07.900Z,50.05
2022-09-15T15:15:37.174Z,50.93
2022-09-15T15:18:05.722Z,51.30
2022-09-15T15:20:33.711Z,51.78
2022-09-15T15:23:11.247Z,52.34
2022-09-15T15:25:39.132Z,52.71
2022-09-15T15:28:06.829Z,53.61
2022-09-15T15:30:36.382Z,54.86
2022-09-15T15:33:06.930Z,55.47
2022-09-15T15:35:35.867Z,55.81
2022-09-15T15:38:05.756Z,56.68
2022-09-15T15:40:35.486Z,57.47
2022-09-15T15:43:06.153Z,57.53
2022-09-15T15:45:35.660Z,57.85
2022-09-15T15:48:04.486Z,58.10
2022-09-15T15:50:32.743Z,58.44
2022-09-15T15:53:02.752Z,58.24
2022-09-15T15:55:40.237Z,58.54
2022-09-15T15:58:09.108Z,58.12
2022-09-15T16:00:40.024Z,57.40
2022-09-15T16:03:11.261Z,56.60
2022-09-15T16:05:39.406Z,56.48
2022-09-15T16:08:10.360Z,56.21
2022-09-15T16:10:39.389Z,56.20
2022-09-15T16:13:07.430Z,56.07
2022-09-15T16:15:35.344Z,56.22
2022-09-15T16:18:04.277Z,56.21
2022-09-15T16:20:32.024Z,56.12
2022-09-15T16:22:59.739Z,55.97
2022-09-15T16:25:39.020Z,56.02
2022-09-15T16:28:07.037Z,56.15
2022-09-15T16:30:35.232Z,56.40
2022-09-15T16:33:03.083Z,56.63
2022-09-15T16:35:33.492Z,57.20
2022-09-15T16:38:04.738Z,57.52
2022-09-15T16:40:32.725Z,57.82
2022-09-15T16:43:00.667Z,57.76
2022-09-15T16:45:38.245Z,58.02
2022-09-15T16:48:11.643Z,58.24
2022-09-15T16:50:45.836Z,58.56
2022-09-15T16:53:18.478Z,58.45
2022-09-15T16:55:46.494Z,58.67
2022-09-15T16:58:15.396Z,58.93
2022-09-15T17:00:43.677Z,59.18
2022-09-15T17:03:15.160Z,59.69
2022-09-15T17:05:48.510Z,59.82
2022-09-15T17:08:20.391Z,59.96
2022-09-15T17:10:48.669Z,60.24
2022-09-15T17:13:17.684Z,61.12
2022-09-15T17:15:45.994Z,60.91
2022-09-15T17:18:15.603Z,60.87
2022-09-15T17:20:44.231Z,61.15
2022-09-15T17:23:25.430Z,61.56
2022-09-15T17:25:57.693Z,61.29
2022-09-15T17:28:28.114Z,61.42
2022-09-15T17:30:57.531Z,61.54
2022-09-15T17:33:25.931Z,61.63
2022-09-15T17:35:54.664Z,61.98
2022-09-15T17:38:23.196Z,62.56
2022-09-15T17:40:54.652Z,67.78
2022-09-15T17:43:24.487Z,67.25
2022-09-15T17:45:54.336Z,62.82
2022-09-15T17:48:25.751Z,58.86
2022-09-15T17:50:57.906Z,55.11
2022-09-15T17:53:31.116Z,55.37
2022-09-15T17:55:59.253Z,55.42
2022-09-15T17:58:31.551Z,56.00
2022-09-15T18:01:01.860Z,57.23
2022-09-15T18:03:31.239Z,57.70
2022-09-15T18:06:06.868Z,59.03
2022-09-15T18:08:38.346Z,59.25
2022-09-15T18:11:15.569Z,59.99
2022-09-15T18:13:45.711Z,60.71
2022-09-15T18:16:15.012Z,62.01
2022-09-15T18:18:44.607Z,63.17
2022-09-15T18:21:24.887Z,60.00
2022-09-15T18:23:53.565Z,58.10
2022-09-15T18:26:26.493Z,58.63
2022-09-15T18:28:55.975Z,59.22
2022-09-15T18:31:24.693Z,60.53
2022-09-15T18:33:52.901Z,62.25
2022-09-15T18:36:20.868Z,65.97
2022-09-15T18:38:50.105Z,63.38
2022-09-15T18:41:18.777Z,57.52
2022-09-15T18:43:49.314Z,56.84
2022-09-15T18:46:18.659Z,56.90
2022-09-15T18:48:48.111Z,58.35
2022-09-15T18:51:23.837Z,59.64
2022-09-15T18:53:57.564Z,59.93
2022-09-15T18:56:25.668Z,60.40
2022-09-15T18:58:57.401Z,61.15
2022-09-15T19:01:28.731Z,61.29
2022-09-15T19:03:58.129Z,61.22
2022-09-15T19:06:29.310Z,65.03
2022-09-15T19:08:57.365Z,67.89
2022-09-15T19:11:27.371Z,63.80
2022-09-15T19:13:58.364Z,58.95
2022-09-15T19:16:46.637Z,57.81
2022-09-15T19:19:17.766Z,58.04
2022-09-15T19:21:48.437Z,58.24
2022-09-15T19:24:19.145Z,59.20
2022-09-15T19:26:47.343Z,61.01
2022-09-15T19:29:18.044Z,63.59
2022-09-15T19:31:46.073Z,62.98
2022-09-15T19:34:14.806Z,59.17
2022-09-15T19:36:43.656Z,57.42
2022-09-15T19:39:13.602Z,57.60
2022-09-15T19:41:43.168Z,57.85
2022-09-15T19:44:11.098Z,59.51
2022-09-15T19:46:39.549Z,60.58
2022-09-15T19:49:10.237Z,63.09
2022-09-15T19:51:38.774Z,65.79
2022-09-15T19:54:07.192Z,61.79
2022-09-15T19:56:35.561Z,58.39
2022-09-15T19:59:03.971Z,57.24
2022-09-15T20:01:32.797Z,57.68
2022-09-15T20:04:02.187Z,59.20
2022-09-15T20:06:32.763Z,59.84
2022-09-15T20:09:05.621Z,60.84
2022-09-15T20:11:34.086Z,64.25
2022-09-15T20:14:01.894Z,65.72
2022-09-15T20:16:32.246Z,61.97
2022-09-15T20:19:00.662Z,60.44
2022-09-15T20:21:49.372Z,56.96
2022-09-15T20:24:19.542Z,56.67
2022-09-15T20:26:47.538Z,57.15
2022-09-15T20:29:15.285Z,57.88
2022-09-15T20:31:46.580Z,58.15
2022-09-15T20:34:15.204Z,58.31
2022-09-15T20:36:43.551Z,58.88
2022-09-15T20:39:13.408Z,62.39
2022-09-15T20:41:42.275Z,66.44
2022-09-15T20:44:11.631Z,63.52
2022-09-15T20:46:39.519Z,61.00
2022-09-15T20:49:07.937Z,57.15
2022-09-15T20:51:35.618Z,56.70
2022-09-15T20:54:03.705Z,57.65
2022-09-15T20:56:32.236Z,59.98
2022-09-15T20:59:00.296Z,60.70
2022-09-15T21:01:29.556Z,60.36
2022-09-15T21:03:57.384Z,64.91
2022-09-15T21:06:26.038Z,63.71
2022-09-15T21:08:56.098Z,60.53
2022-09-15T21:11:24.818Z,58.12
2022-09-15T21:13:52.845Z,58.10
2022-09-15T21:16:21.572Z,60.32
2022-09-15T21:18:49.743Z,63.61
2022-09-15T21:21:19.306Z,63.17
2022-09-15T21:23:48.409Z,61.18
2022-09-15T21:26:17.178Z,57.34
2022-09-15T21:28:44.933Z,56.20
2022-09-15T21:31:14.944Z,57.71
2022-09-15T21:33:42.951Z,58.73
2022-09-15T21:36:10.859Z,62.13
2022-09-15T21:38:40.725Z,62.93
2022-09-15T21:41:09.799Z,62.22
2022-09-15T21:43:39.216Z,58.50
2022-09-15T21:46:08.569Z,58.60
2022-09-15T21:48:36.288Z,60.68
2022-09-15T21:51:04.816Z,62.29
2022-09-15T21:53:33.914Z,63.83
2022-09-15T21:56:02.071Z,59.76
2022-09-15T21:58:40.328Z,57.98
2022-09-15T22:01:13.791Z,59.81
2022-09-15T22:03:42.388Z,60.02
2022-09-15T22:06:12.997Z,63.61
2022-09-15T22:08:40.985Z,62.94
2022-09-15T22:11:09.037Z,61.30
2022-09-15T22:13:37.684Z,58.36
2022-09-15T22:16:06.465Z,57.51
2022-09-15T22:18:37.482Z,59.04
2022-09-15T22:21:05.351Z,60.24
2022-09-15T22:23:34.135Z,61.51
2022-09-15T22:26:02.543Z,63.56
2022-09-15T22:28:31.374Z,61.13
2022-09-15T22:30:59.692Z,60.87
2022-09-15T22:33:27.727Z,57.28
2022-09-15T22:35:55.709Z,56.35
2022-09-15T22:38:23.838Z,59.18
2022-09-15T22:40:51.698Z,59.62
2022-09-15T22:43:19.565Z,59.08
2022-09-15T22:45:47.654Z,62.05
2022-09-15T22:48:15.400Z,64.11
2022-09-15T22:50:46.447Z,61.38
2022-09-15T22:53:15.424Z,59.26
2022-09-15T22:55:43.831Z,57.12
2022-09-15T22:58:11.524Z,58.94
2022-09-15T23:04:10.344Z,62.67
2022-09-15T23:06:38.103Z,65.21
2022-09-15T23:09:07.095Z,62.28
2022-09-15T23:11:35.673Z,60.43
2022-09-15T23:14:04.380Z,56.55
2022-09-15T23:16:34.307Z,56.40
2022-09-15T23:19:02.562Z,58.07
2022-09-15T23:21:30.534Z,59.91
2022-09-15T23:23:59.418Z,60.45
2022-09-15T23:26:29.244Z,64.08
2022-09-15T23:28:57.412Z,64.38
2022-09-15T23:31:25.262Z,62.73
2022-09-15T23:33:53.388Z,59.18
2022-09-15T23:36:23.245Z,56.75
2022-09-15T23:38:51.565Z,57.53
2022-09-15T23:41:20.221Z,59.86
2022-09-15T23:43:48.997Z,61.34
2022-09-15T23:46:17.561Z,63.79
2022-09-15T23:48:45.492Z,64.98
2022-09-15T23:51:13.212Z,61.45
2022-09-15T23:53:43.414Z,57.97
2022-09-15T23:56:11.276Z,57.24
2022-09-15T23:58:39.749Z,60.08
